Time;durP1;ratioP1;P1;durP2;ratioP2;P2;SDS_P1;SDS_P2;PMS_P1;PMS_P2;Temp;Humidity;BMP_temperature;BMP_pressure;BME280_temperature;BME280_humidity;BME280_pressure;Samples;Min_cycle;Max_cycle;Signal;HPM_P1;HPM_P2
2022/06/19 00:01:49;;;;;;;16.43;3.47;;;;;;;;;;8351968;28;20045;-59
2022/06/19 00:05:51;;;;;;;16.58;3.20;;;;;;;;;;8356547;28;20123;-58
2022/06/19 00:09:51;;;;;;;20.02;4.13;;;;;;;;;;8353123;28;20365;-59
2022/06/19 00:13:52;;;;;;;17.15;3.55;;;;;;;;;;8351878;28;20028;-59
2022/06/19 00:17:53;;;;;;;16.48;3.22;;;;;;;;;;8351963;28;20044;-59
2022/06/19 00:21:53;;;;;;;19.58;3.90;;;;;;;;;;8350282;28;20385;-59
2022/06/19 00:25:53;;;;;;;17.55;3.30;;;;;;;;;;8354515;28;20032;-59
2022/06/19 00:29:53;;;;;;;13.40;3.10;;;;;;;;;;8352982;28;20039;-58
2022/06/19 00:33:54;;;;;;;18.95;3.40;;;;;;;;;;8354154;28;20043;-59
2022/06/19 00:37:55;;;;;;;14.30;3.60;;;;;;;;;;8353832;28;20028;-58
2022/06/19 00:41:55;;;;;;;14.93;3.70;;;;;;;;;;8353766;28;20886;-59
2022/06/19 00:46:02;;;;;;;17.67;3.97;;;;;;;;;;8351405;28;21764;-59
2022/06/19 00:50:18;;;;;;;14.90;3.50;;;;;;;;;;8354033;28;20024;-59
2022/06/19 00:54:20;;;;;;;14.57;3.35;;;;;;;;;;8350678;28;20451;-60
2022/06/19 00:58:32;;;;;;;17.70;3.65;;;;;;;;;;8353572;28;20032;-58
2022/06/19 01:02:32;;;;;;;18.75;3.45;;;;;;;;;;8352888;28;20622;-58
2022/06/19 01:06:32;;;;;;;17.90;3.57;;;;;;;;;;8354404;28;20460;-58
2022/06/19 01:10:34;;;;;;;18.73;3.80;;;;;;;;;;8356853;28;20287;-58
2022/06/19 01:14:34;;;;;;;16.27;3.22;;;;;;;;;;8354899;28;20286;-59
2022/06/19 01:18:36;;;;;;;20.35;3.97;;;;;;;;;;8353017;28;20032;-58
2022/06/19 01:22:46;;;;;;;24.15;3.42;;;;;;;;;;8355346;28;20036;-59
2022/06/19 01:26:49;;;;;;;14.82;3.17;;;;;;;;;;8361580;28;21017;-58
2022/06/19 01:30:50;;;;;;;19.38;3.55;;;;;;;;;;8359809;28;20127;-57
2022/06/19 01:34:52;;;;;;;22.90;3.55;;;;;;;;;;8358663;28;20035;-57
2022/06/19 01:38:53;;;;;;;16.93;3.50;;;;;;;;;;8359402;28;20016;-58
2022/06/19 01:42:54;;;;;;;16.65;3.50;;;;;;;;;;8354837;28;21227;-57
2022/06/19 01:46:54;;;;;;;23.13;3.22;;;;;;;;;;8359069;28;20098;-57
2022/06/19 01:50:55;;;;;;;18.00;4.07;;;;;;;;;;8360067;28;20058;-57
2022/06/19 01:55:13;;;;;;;16.35;3.50;;;;;;;;;;8357014;28;20336;-56
2022/06/19 01:59:14;;;;;;;15.68;3.53;;;;;;;;;;8356125;28;20051;-57
2022/06/19 02:03:17;;;;;;;21.92;3.22;;;;;;;;;;8357517;28;20035;-57
2022/06/19 02:07:21;;;;;;;19.45;3.42;;;;;;;;;;8357375;28;20071;-57
2022/06/19 02:11:21;;;;;;;18.33;2.85;;;;;;;;;;8357489;28;20063;-58
2022/06/19 02:15:21;;;;;;;22.67;4.10;;;;;;;;;;8355749;28;20036;-58
2022/06/19 02:19:22;;;;;;;13.90;3.13;;;;;;;;;;8357767;28;20039;-58
2022/06/19 02:23:26;;;;;;;16.83;3.10;;;;;;;;;;8357015;28;20052;-58
2022/06/19 02:27:26;;;;;;;16.92;3.70;;;;;;;;;;8356745;28;20754;-57
2022/06/19 02:31:26;;;;;;;20.20;3.67;;;;;;;;;;8356228;28;20074;-57
2022/06/19 02:35:27;;;;;;;13.83;3.37;;;;;;;;;;8356887;28;20266;-57
2022/06/19 02:39:49;;;;;;;25.77;3.33;;;;;;;;;;8357200;28;20017;-57
2022/06/19 02:43:49;;;;;;;16.45;3.25;;;;;;;;;;8356151;28;20039;-57
2022/06/19 02:47:50;;;;;;;18.95;3.33;;;;;;;;;;8356111;28;20029;-58
2022/06/19 02:51:51;;;;;;;14.30;3.25;;;;;;;;;;8355551;28;20124;-56
2022/06/19 02:55:51;;;;;;;18.10;3.27;;;;;;;;;;8356593;28;20513;-58
2022/06/19 02:59:52;;;;;;;17.83;3.17;;;;;;;;;;8352799;28;20031;-59
2022/06/19 03:03:52;;;;;;;19.58;4.20;;;;;;;;;;8358561;28;20047;-58
2022/06/19 03:07:53;;;;;;;19.27;3.80;;;;;;;;;;8354698;28;20067;-58
2022/06/19 03:11:53;;;;;;;13.93;3.72;;;;;;;;;;8355073;28;20775;-59
2022/06/19 03:16:07;;;;;;;15.60;3.60;;;;;;;;;;8353277;28;20094;-59
2022/06/19 03:20:08;;;;;;;11.68;3.88;;;;;;;;;;8355432;28;20441;-59
2022/06/19 03:24:09;;;;;;;15.57;4.47;;;;;;;;;;8355007;28;20350;-58
2022/06/19 03:28:09;;;;;;;11.65;4.57;;;;;;;;;;8356372;28;20507;-60
2022/06/19 03:32:13;;;;;;;14.57;4.95;;;;;;;;;;8355296;28;20059;-60
2022/06/19 03:36:13;;;;;;;13.98;4.28;;;;;;;;;;8354730;28;20020;-60
2022/06/19 03:40:14;;;;;;;18.23;4.43;;;;;;;;;;8354467;28;20018;-60
2022/06/19 03:44:14;;;;;;;11.52;4.13;;;;;;;;;;8355920;28;20032;-60
2022/06/19 03:48:14;;;;;;;13.95;4.22;;;;;;;;;;8353561;28;20041;-59
2022/06/19 03:52:15;;;;;;;15.30;4.57;;;;;;;;;;8356223;28;20056;-59
2022/06/19 03:56:17;;;;;;;11.90;4.00;;;;;;;;;;8353752;28;20024;-60
2022/06/19 04:00:18;;;;;;;13.98;4.38;;;;;;;;;;8352851;28;20020;-59
2022/06/19 04:04:18;;;;;;;17.40;4.38;;;;;;;;;;8354956;28;20023;-60
2022/06/19 04:08:18;;;;;;;18.95;4.45;;;;;;;;;;8354128;28;20584;-60
2022/06/19 04:12:19;;;;;;;10.13;4.20;;;;;;;;;;8356963;28;20503;-60
2022/06/19 04:16:20;;;;;;;12.18;4.82;;;;;;;;;;8354624;28;20051;-60
2022/06/19 04:20:20;;;;;;;10.43;4.32;;;;;;;;;;8352156;28;20024;-60
2022/06/19 04:24:21;;;;;;;13.93;4.50;;;;;;;;;;8353479;28;20040;-60
2022/06/19 04:28:24;;;;;;;11.77;4.57;;;;;;;;;;8353571;28;20023;-59
2022/06/19 04:32:24;;;;;;;;;;;;;;;;;;8352870;28;20071;-60
2022/06/19 04:36:25;;;;;;;15.65;5.18;;;;;;;;;;8353482;28;19998;-60
2022/06/19 04:40:28;;;;;;;12.52;4.60;;;;;;;;;;8354563;28;20119;-60
2022/06/19 04:44:28;;;;;;;11.10;4.82;;;;;;;;;;8360409;28;20024;-60
2022/06/19 04:48:29;;;;;;;19.35;5.30;;;;;;;;;;8359431;28;20033;-60
2022/06/19 04:52:29;;;;;;;9.45;4.63;;;;;;;;;;8359763;28;20024;-60
2022/06/19 04:56:29;;;;;;;9.80;4.73;;;;;;;;;;8359902;28;20024;-60
2022/06/19 05:00:30;;;;;;;10.23;4.70;;;;;;;;;;8358996;28;20049;-59
2022/06/19 05:04:30;;;;;;;11.13;4.80;;;;;;;;;;8357762;28;20044;-59
2022/06/19 05:08:31;;;;;;;8.80;4.30;;;;;;;;;;8360627;28;20152;-60
2022/06/19 05:12:31;;;;;;;10.88;5.03;;;;;;;;;;8357536;28;20031;-59
2022/06/19 05:16:32;;;;;;;10.60;4.72;;;;;;;;;;8359162;28;20105;-60
2022/06/19 05:20:32;;;;;;;8.90;4.35;;;;;;;;;;8358158;28;20029;-60
2022/06/19 05:24:32;;;;;;;8.10;4.30;;;;;;;;;;8358348;28;20028;-59
2022/06/19 05:28:33;;;;;;;9.88;4.63;;;;;;;;;;8356579;28;20135;-59
2022/06/19 05:32:33;;;;;;;12.93;4.90;;;;;;;;;;8357193;28;20036;-60
2022/06/19 05:36:34;;;;;;;7.83;4.60;;;;;;;;;;8356003;28;20118;-59
2022/06/19 05:40:34;;;;;;;11.13;4.83;;;;;;;;;;8359545;28;20035;-60
2022/06/19 05:44:35;;;;;;;8.90;4.27;;;;;;;;;;8357289;28;20099;-62
2022/06/19 05:48:36;;;;;;;12.55;4.68;;;;;;;;;;8357936;28;20209;-60
2022/06/19 05:52:36;;;;;;;13.27;4.63;;;;;;;;;;8355015;28;20395;-60
2022/06/19 05:56:37;;;;;;;8.13;4.07;;;;;;;;;;8358597;28;20031;-59
2022/06/19 06:00:37;;;;;;;12.93;4.43;;;;;;;;;;8356160;28;20171;-60
2022/06/19 06:04:37;;;;;;;7.73;4.27;;;;;;;;;;8354362;28;20060;-60
2022/06/19 06:08:38;;;;;;;11.68;4.30;;;;;;;;;;8357593;28;20025;-60
2022/06/19 06:12:38;;;;;;;15.18;4.35;;;;;;;;;;8355757;28;20020;-61
2022/06/19 06:16:38;;;;;;;14.77;3.90;;;;;;;;;;8356364;28;20040;-60
2022/06/19 06:20:39;;;;;;;9.40;4.57;;;;;;;;;;8355795;28;20062;-60
2022/06/19 06:24:39;;;;;;;13.53;4.57;;;;;;;;;;8356134;28;20021;-60
2022/06/19 06:28:41;;;;;;;12.33;4.50;;;;;;;;;;8355268;28;20032;-60
2022/06/19 06:32:41;;;;;;;12.50;4.20;;;;;;;;;;8352549;28;20039;-60
2022/06/19 06:36:41;;;;;;;10.23;3.80;;;;;;;;;;8356035;28;20665;-60
2022/06/19 06:40:41;;;;;;;7.90;4.00;;;;;;;;;;8354590;28;20108;-60
2022/06/19 06:44:42;;;;;;;14.00;3.90;;;;;;;;;;8356783;28;20161;-60
2022/06/19 06:48:42;;;;;;;10.70;3.53;;;;;;;;;;8356955;28;20036;-60
2022/06/19 06:52:42;;;;;;;8.80;3.75;;;;;;;;;;8355321;28;20028;-60
2022/06/19 06:56:42;;;;;;;7.45;4.10;;;;;;;;;;8355270;28;20025;-61
2022/06/19 07:00:42;;;;;;;8.20;3.80;;;;;;;;;;8353513;28;20048;-60
2022/06/19 07:04:43;;;;;;;8.93;3.88;;;;;;;;;;8352671;28;20029;-60
2022/06/19 07:08:43;;;;;;;6.47;3.67;;;;;;;;;;8355164;28;20025;-61
2022/06/19 07:12:43;;;;;;;8.70;3.42;;;;;;;;;;8354345;28;20144;-59
2022/06/19 07:16:43;;;;;;;9.07;3.63;;;;;;;;;;8353022;28;20151;-60
2022/06/19 07:20:43;;;;;;;11.32;3.80;;;;;;;;;;8354645;28;20025;-60
2022/06/19 07:24:44;;;;;;;11.88;3.58;;;;;;;;;;8351297;28;20035;-60
2022/06/19 07:28:44;;;;;;;8.15;3.30;;;;;;;;;;8355164;28;20085;-60
2022/06/19 07:32:47;;;;;;;6.90;3.00;;;;;;;;;;8351369;28;20401;-60
2022/06/19 07:36:47;;;;;;;8.40;3.67;;;;;;;;;;8356587;28;20052;-60
2022/06/19 07:40:48;;;;;;;12.93;3.97;;;;;;;;;;8353649;28;20040;-60
2022/06/19 07:44:48;;;;;;;8.05;3.55;;;;;;;;;;8354663;28;20025;-60
2022/06/19 07:53:08;;;;;;;9.63;3.55;;;;;;;;;;8321340;28;20060;-59
2022/06/19 07:57:09;;;;;;;7.93;3.67;;;;;;;;;;8349419;28;20024;-60
2022/06/19 08:01:09;;;;;;;10.27;3.40;;;;;;;;;;8355108;28;20083;-60
2022/06/19 08:05:11;;;;;;;8.83;3.27;;;;;;;;;;8352140;28;20024;-60
2022/06/19 08:09:12;;;;;;;9.70;3.42;;;;;;;;;;8352045;28;20043;-60
2022/06/19 08:13:12;;;;;;;10.13;3.50;;;;;;;;;;8350809;28;20507;-60
2022/06/19 08:17:12;;;;;;;10.80;3.65;;;;;;;;;;8346833;28;20941;-60
2022/06/19 08:21:12;;;;;;;12.27;3.70;;;;;;;;;;8347814;28;20482;-61
2022/06/19 08:25:13;;;;;;;8.88;3.30;;;;;;;;;;8352230;28;20052;-60
2022/06/19 08:29:14;;;;;;;11.80;3.70;;;;;;;;;;8350551;28;20505;-60
2022/06/19 08:33:14;;;;;;;11.63;3.33;;;;;;;;;;8350969;28;20071;-60
2022/06/19 08:37:14;;;;;;;8.50;3.50;;;;;;;;;;8352999;28;20036;-60
2022/06/19 08:41:33;;;;;;;8.83;3.30;;;;;;;;;;8349575;28;20133;-60
2022/06/19 08:45:36;;;;;;;9.88;3.15;;;;;;;;;;8350334;28;20067;-60
2022/06/19 08:49:39;;;;;;;7.53;3.30;;;;;;;;;;8351649;28;20377;-60
2022/06/19 08:53:55;;;;;;;8.05;3.25;;;;;;;;;;8350825;28;20705;-60
2022/06/19 08:58:06;;;;;;;7.50;3.40;;;;;;;;;;8349022;28;20779;-60
2022/06/19 09:02:25;;;;;;;9.68;3.38;;;;;;;;;;8347209;28;20045;-60
2022/06/19 09:06:45;;;;;;;7.32;3.42;;;;;;;;;;8352358;28;20032;-60
2022/06/19 09:10:55;;;;;;;10.67;3.40;;;;;;;;;;8343308;28;20075;-61
2022/06/19 09:15:13;;;;;;;7.35;3.30;;;;;;;;;;8351647;28;20530;-60
2022/06/19 09:19:13;;;;;;;7.68;3.28;;;;;;;;;;8351335;28;20065;-60
2022/06/19 09:23:16;;;;;;;9.77;3.72;;;;;;;;;;8352799;28;20157;-60
2022/06/19 09:27:17;;;;;;;8.18;3.28;;;;;;;;;;8352373;28;20115;-60
2022/06/19 09:31:20;;;;;;;11.30;3.33;;;;;;;;;;8354129;28;20529;-60
2022/06/19 09:35:25;;;;;;;9.13;3.85;;;;;;;;;;8355438;28;20024;-60
2022/06/19 09:39:28;;;;;;;9.63;3.60;;;;;;;;;;8352420;28;20028;-60
2022/06/19 09:43:32;;;;;;;10.52;3.10;;;;;;;;;;8356309;28;20596;-60
2022/06/19 09:47:32;;;;;;;11.88;3.72;;;;;;;;;;8355808;28;20817;-60
2022/06/19 09:51:59;;;;;;;8.55;3.40;;;;;;;;;;8355363;28;20417;-60
2022/06/19 09:56:06;;;;;;;8.82;3.58;;;;;;;;;;8353058;28;20788;-60
2022/06/19 10:00:12;;;;;;;9.00;3.85;;;;;;;;;;8355191;28;20052;-60
2022/06/19 10:04:21;;;;;;;10.30;4.15;;;;;;;;;;8356538;28;20020;-60
2022/06/19 10:08:45;;;;;;;9.65;3.83;;;;;;;;;;8354884;28;20081;-60
2022/06/19 10:12:47;;;;;;;15.20;4.00;;;;;;;;;;8358481;28;20024;-60
2022/06/19 10:16:50;;;;;;;13.70;4.13;;;;;;;;;;8352991;28;20040;-60
2022/06/19 10:21:03;;;;;;;9.18;3.70;;;;;;;;;;8354430;28;20496;-61
2022/06/19 10:25:18;;;;;;;9.63;3.53;;;;;;;;;;8357585;28;20050;-60
2022/06/19 10:29:30;;;;;;;11.50;4.50;;;;;;;;;;8355074;28;20626;-60
2022/06/19 10:33:38;;;;;;;9.07;3.90;;;;;;;;;;8355918;28;20044;-60
2022/06/19 10:37:38;;;;;;;9.52;4.60;;;;;;;;;;8353907;28;20062;-60
2022/06/19 10:42:06;;;;;;;10.30;4.97;;;;;;;;;;8353468;28;20032;-60
2022/06/19 10:46:07;;;;;;;10.88;4.03;;;;;;;;;;8353697;28;20036;-60
2022/06/19 10:50:26;;;;;;;9.73;4.10;;;;;;;;;;8353580;28;20017;-60
2022/06/19 10:54:29;;;;;;;8.57;3.70;;;;;;;;;;8352646;28;20024;-60
2022/06/19 10:58:30;;;;;;;9.50;3.72;;;;;;;;;;8355874;28;20046;-60
2022/06/19 11:07:02;;;;;;;10.68;3.88;;;;;;;;;;8352407;28;20102;-60
2022/06/19 11:11:02;;;;;;;11.07;3.80;;;;;;;;;;8349935;28;20012;-60
2022/06/19 11:15:07;;;;;;;7.23;3.47;;;;;;;;;;8351240;28;20223;-60
2022/06/19 11:19:07;;;;;;;8.82;3.85;;;;;;;;;;8358173;28;20035;-60
2022/06/19 11:23:20;;;;;;;9.50;3.93;;;;;;;;;;8353020;28;20024;-60
2022/06/19 11:27:22;;;;;;;7.18;3.80;;;;;;;;;;8352628;28;20281;-60
2022/06/19 11:31:25;;;;;;;14.45;3.90;;;;;;;;;;8351608;28;20099;-60
2022/06/19 11:35:35;;;;;;;17.13;3.85;;;;;;;;;;8353549;28;20020;-60
2022/06/19 11:39:37;;;;;;;16.27;4.20;;;;;;;;;;8353759;28;20115;-60
2022/06/19 11:43:37;;;;;;;9.48;4.00;;;;;;;;;;8354027;28;20032;-60
2022/06/19 11:47:39;;;;;;;10.37;3.80;;;;;;;;;;8355138;28;20033;-60
2022/06/19 11:51:39;;;;;;;11.82;3.80;;;;;;;;;;8354216;28;20028;-61
2022/06/19 11:55:42;;;;;;;8.77;4.07;;;;;;;;;;8354412;28;20036;-60
2022/06/19 11:59:45;;;;;;;9.77;3.58;;;;;;;;;;8355493;28;20133;-60
2022/06/19 12:03:47;;;;;;;9.57;4.18;;;;;;;;;;8354196;28;20716;-61
2022/06/19 12:07:47;;;;;;;13.57;4.22;;;;;;;;;;8353389;28;20025;-60
2022/06/19 12:12:06;;;;;;;9.55;3.40;;;;;;;;;;8350903;28;20043;-60
2022/06/19 12:16:23;;;;;;;12.00;3.58;;;;;;;;;;8351163;28;20066;-61
2022/06/19 12:20:25;;;;;;;11.60;3.80;;;;;;;;;;8349156;28;20052;-60
2022/06/19 12:24:33;;;;;;;8.48;3.53;;;;;;;;;;8351261;28;20765;-60
2022/06/19 12:28:33;;;;;;;10.15;4.18;;;;;;;;;;8353010;28;20260;-60
2022/06/19 12:32:43;;;;;;;12.40;4.10;;;;;;;;;;8348670;28;20042;-61
2022/06/19 12:36:44;;;;;;;15.80;3.90;;;;;;;;;;8352567;28;20263;-60
2022/06/19 12:40:58;;;;;;;9.87;3.77;;;;;;;;;;8352325;28;20028;-60
2022/06/19 12:45:03;;;;;;;9.38;3.83;;;;;;;;;;8352143;28;20028;-60
2022/06/19 12:49:12;;;;;;;10.93;4.43;;;;;;;;;;8352165;28;20083;-60
2022/06/19 12:53:26;;;;;;;10.82;3.90;;;;;;;;;;8350870;28;20027;-60
2022/06/19 12:57:36;;;;;;;9.80;4.30;;;;;;;;;;8352549;28;20078;-60
2022/06/19 13:01:36;;;;;;;13.18;3.95;;;;;;;;;;8351897;28;20410;-60
2022/06/19 13:06:01;;;;;;;12.52;3.60;;;;;;;;;;8357601;28;20393;-60
2022/06/19 13:10:08;;;;;;;15.70;4.18;;;;;;;;;;8358641;28;20034;-60
2022/06/19 13:14:14;;;;;;;14.30;4.10;;;;;;;;;;8357860;28;20031;-60
2022/06/19 13:18:21;;;;;;;9.18;3.63;;;;;;;;;;8356891;28;20028;-60
2022/06/19 13:22:27;;;;;;;11.65;3.85;;;;;;;;;;8358271;28;20479;-60
2022/06/19 13:31:01;;;;;;;12.75;4.20;;;;;;;;;;8358314;28;20039;-60
2022/06/19 13:35:02;;;;;;;13.07;3.67;;;;;;;;;;8360073;28;20136;-59
2022/06/19 13:39:22;;;;;;;10.13;4.30;;;;;;;;;;8355346;28;20029;-59
2022/06/19 13:43:34;;;;;;;11.32;4.22;;;;;;;;;;8359825;28;20027;-59
2022/06/19 13:47:52;;;;;;;9.98;3.80;;;;;;;;;;8357109;28;20040;-60
2022/06/19 13:52:05;;;;;;;13.82;4.10;;;;;;;;;;8376601;28;20016;-61
2022/06/19 13:56:14;;;;;;;13.98;4.15;;;;;;;;;;8356180;28;20119;-62
2022/06/19 14:00:22;;;;;;;14.07;3.97;;;;;;;;;;8351533;28;20016;-61
2022/06/19 14:08:49;;;;;;;10.88;3.55;;;;;;;;;;8352943;28;20081;-60
2022/06/19 14:12:53;;;;;;;11.40;3.78;;;;;;;;;;8354141;28;20036;-59
2022/06/19 14:17:11;;;;;;;14.93;4.10;;;;;;;;;;8353394;28;20839;-60
2022/06/19 14:21:21;;;;;;;10.23;4.00;;;;;;;;;;8349867;28;20027;-60
2022/06/19 14:25:30;;;;;;;9.82;3.97;;;;;;;;;;8352694;28;20111;-60
2022/06/19 14:29:42;;;;;;;11.27;3.72;;;;;;;;;;8352804;28;20525;-59
2022/06/19 14:33:45;;;;;;;12.68;4.03;;;;;;;;;;8351385;28;20148;-60
2022/06/19 14:37:52;;;;;;;12.70;4.07;;;;;;;;;;8349760;28;20032;-60
2022/06/19 14:41:57;;;;;;;9.63;3.58;;;;;;;;;;8350826;28;20039;-60
2022/06/19 14:46:03;;;;;;;12.88;3.90;;;;;;;;;;8349513;28;20063;-59
2022/06/19 14:50:10;;;;;;;16.70;4.13;;;;;;;;;;8353257;28;20025;-60
2022/06/19 14:54:23;;;;;;;14.73;4.10;;;;;;;;;;8350082;28;20529;-59
2022/06/19 14:58:29;;;;;;;12.90;3.85;;;;;;;;;;8351427;28;20081;-61
2022/06/19 15:02:29;;;;;;;12.23;3.70;;;;;;;;;;8348443;28;20692;-60
2022/06/19 15:06:45;;;;;;;12.20;3.95;;;;;;;;;;8349947;28;20058;-60
2022/06/19 15:10:52;;;;;;;13.68;4.32;;;;;;;;;;8350489;28;20059;-60
2022/06/19 15:14:54;;;;;;;11.40;3.85;;;;;;;;;;8348190;28;20401;-59
2022/06/19 15:18:57;;;;;;;12.25;3.92;;;;;;;;;;8348532;28;20039;-60
2022/06/19 15:23:17;;;;;;;15.07;4.38;;;;;;;;;;8350971;28;20543;-60
2022/06/19 15:27:23;;;;;;;12.02;4.10;;;;;;;;;;8349982;28;20027;-60
2022/06/19 15:31:42;;;;;;;13.43;3.80;;;;;;;;;;8350693;28;20789;-60
2022/06/19 15:35:59;;;;;;;12.15;3.70;;;;;;;;;;8350260;28;20020;-60
2022/06/19 15:40:06;;;;;;;8.82;3.40;;;;;;;;;;8351223;28;20083;-60
2022/06/19 15:44:31;;;;;;;16.17;3.90;;;;;;;;;;8352637;28;20017;-60
2022/06/19 15:48:33;;;;;;;13.38;4.45;;;;;;;;;;8353497;28;20056;-60
2022/06/19 15:52:37;;;;;;;14.55;4.00;;;;;;;;;;8350330;28;20348;-59
2022/06/19 15:56:44;;;;;;;9.32;3.78;;;;;;;;;;8354901;28;20036;-61
2022/06/19 16:00:48;;;;;;;11.30;4.05;;;;;;;;;;8346746;28;20547;-60
2022/06/19 16:04:50;;;;;;;16.40;4.20;;;;;;;;;;8348088;28;20029;-60
2022/06/19 16:09:06;;;;;;;10.95;3.53;;;;;;;;;;8349627;28;20039;-61
2022/06/19 16:13:17;;;;;;;10.07;4.10;;;;;;;;;;8347688;28;20449;-60
2022/06/19 16:17:17;;;;;;;12.93;3.80;;;;;;;;;;8345812;28;20055;-60
2022/06/19 16:21:18;;;;;;;9.02;3.70;;;;;;;;;;8349337;28;20055;-60
2022/06/19 16:25:31;;;;;;;9.68;3.40;;;;;;;;;;8348068;28;20534;-60
2022/06/19 16:29:32;;;;;;;9.40;3.60;;;;;;;;;;8348374;28;20032;-60
2022/06/19 16:33:42;;;;;;;14.50;3.83;;;;;;;;;;8347297;28;20048;-60
2022/06/19 16:46:32;;;;;;;14.52;3.72;;;;;;;;;;8357385;28;20047;-60
2022/06/19 16:50:46;;;;;;;11.02;4.00;;;;;;;;;;8359543;28;20527;-60
2022/06/19 16:54:59;;;;;;;14.35;3.65;;;;;;;;;;8359095;28;20450;-60
2022/06/19 16:59:07;;;;;;;11.25;3.92;;;;;;;;;;8357799;28;20035;-60
2022/06/19 17:03:23;;;;;;;18.00;4.03;;;;;;;;;;8356152;28;20033;-60
2022/06/19 17:07:24;;;;;;;10.82;3.53;;;;;;;;;;8355899;28;20802;-60
2022/06/19 17:11:26;;;;;;;13.40;3.83;;;;;;;;;;8357687;28;20025;-59
2022/06/19 17:15:26;;;;;;;13.75;3.92;;;;;;;;;;8358255;28;20090;-59
2022/06/19 17:19:28;;;;;;;14.82;3.63;;;;;;;;;;8356832;28;20127;-60
2022/06/19 17:23:28;;;;;;;12.05;3.70;;;;;;;;;;8354188;28;20064;-60
2022/06/19 17:27:30;;;;;;;12.83;3.93;;;;;;;;;;8356249;28;20036;-60
2022/06/19 17:31:32;;;;;;;;;;;;;;;;;;8357571;28;20041;-60
2022/06/19 17:35:38;;;;;;;12.63;3.63;;;;;;;;;;8357717;28;19916;-60
2022/06/19 17:39:39;;;;;;;14.52;3.38;;;;;;;;;;8356690;28;20032;-60
2022/06/19 17:43:49;;;;;;;11.80;3.20;;;;;;;;;;8358775;28;20031;-60
2022/06/19 17:47:50;;;;;;;11.25;3.30;;;;;;;;;;8358535;28;20043;-60
2022/06/19 17:52:10;;;;;;;14.65;3.38;;;;;;;;;;8355515;28;20604;-59
2022/06/19 17:56:29;;;;;;;11.82;3.40;;;;;;;;;;8358844;28;20032;-59
2022/06/19 18:00:29;;;;;;;12.02;3.15;;;;;;;;;;8355677;28;20063;-59
2022/06/19 18:04:31;;;;;;;10.15;3.10;;;;;;;;;;8357154;28;20341;-60
2022/06/19 18:08:33;;;;;;;9.30;3.25;;;;;;;;;;8359234;28;20040;-59
2022/06/19 18:12:42;;;;;;;10.80;3.25;;;;;;;;;;8357659;28;20033;-59
2022/06/19 18:21:03;;;;;;;8.65;3.00;;;;;;;;;;8356952;28;20098;-59
2022/06/19 18:25:04;;;;;;;7.47;3.13;;;;;;;;;;8354269;28;20035;-59
2022/06/19 18:29:08;;;;;;;10.68;3.42;;;;;;;;;;8359462;28;20031;-60
2022/06/19 18:33:08;;;;;;;7.75;3.03;;;;;;;;;;8357050;28;20033;-59
2022/06/19 18:37:11;;;;;;;10.85;3.40;;;;;;;;;;8357105;28;20027;-59
2022/06/19 18:41:11;;;;;;;10.85;3.50;;;;;;;;;;8356975;28;20646;-60
2022/06/19 18:45:12;;;;;;;13.07;3.28;;;;;;;;;;8355535;28;20124;-60
2022/06/19 18:49:19;;;;;;;9.20;3.05;;;;;;;;;;8356776;28;20036;-60
2022/06/19 18:53:22;;;;;;;10.30;3.30;;;;;;;;;;8357293;28;20042;-59
2022/06/19 18:57:22;;;;;;;7.32;3.00;;;;;;;;;;8354088;28;20426;-59
2022/06/19 19:01:24;;;;;;;9.57;3.20;;;;;;;;;;8355936;28;20036;-59
2022/06/19 19:05:25;;;;;;;11.75;3.50;;;;;;;;;;8356212;28;20646;-59
2022/06/19 19:09:28;;;;;;;11.18;3.40;;;;;;;;;;8353960;28;20105;-60
2022/06/19 19:13:32;;;;;;;10.15;3.30;;;;;;;;;;8355330;28;20032;-59
2022/06/19 19:17:33;;;;;;;8.80;3.05;;;;;;;;;;8353869;28;20044;-59
2022/06/19 19:21:34;;;;;;;9.52;3.60;;;;;;;;;;8354631;28;20032;-59
2022/06/19 19:25:36;;;;;;;7.75;3.28;;;;;;;;;;8350355;28;20071;-60
2022/06/19 19:29:37;;;;;;;8.02;3.10;;;;;;;;;;8351485;28;20036;-59
2022/06/19 19:33:39;;;;;;;10.63;4.07;;;;;;;;;;8349374;28;20040;-59
2022/06/19 19:37:39;;;;;;;15.27;3.53;;;;;;;;;;8353071;28;20151;-59
2022/06/19 19:41:40;;;;;;;8.43;3.00;;;;;;;;;;8348125;28;20559;-59
2022/06/19 19:45:40;;;;;;;7.03;3.03;;;;;;;;;;8347538;28;20608;-60
2022/06/19 19:49:40;;;;;;;11.85;3.08;;;;;;;;;;8348754;28;20033;-59
2022/06/19 19:53:41;;;;;;;9.13;3.10;;;;;;;;;;8349357;28;20013;-59
2022/06/19 19:57:41;;;;;;;6.93;3.17;;;;;;;;;;8353268;28;20056;-59
2022/06/19 20:01:42;;;;;;;8.27;3.13;;;;;;;;;;8347093;28;20276;-60
2022/06/19 20:14:20;;;;;;;8.43;3.10;;;;;;;;;;8348012;28;20613;-59
2022/06/19 20:18:20;;;;;;;7.80;3.15;;;;;;;;;;8348948;28;20072;-60
2022/06/19 20:22:23;;;;;;;11.38;3.95;;;;;;;;;;8352010;28;20552;-60
2022/06/19 20:26:29;;;;;;;7.93;3.42;;;;;;;;;;8349081;28;20025;-60
2022/06/19 20:30:43;;;;;;;7.45;2.92;;;;;;;;;;8348713;28;20041;-60
2022/06/19 20:34:44;;;;;;;6.15;2.78;;;;;;;;;;8350785;28;20107;-59
2022/06/19 20:38:47;;;;;;;9.88;3.10;;;;;;;;;;8347655;28;20032;-60
2022/06/19 20:42:48;;;;;;;9.50;3.13;;;;;;;;;;8351499;28;20043;-59
2022/06/19 20:46:48;;;;;;;10.95;3.25;;;;;;;;;;8351556;28;20043;-59
2022/06/19 20:50:50;;;;;;;9.18;3.30;;;;;;;;;;8351315;28;20083;-58
2022/06/19 20:54:52;;;;;;;8.75;3.40;;;;;;;;;;8351054;28;20043;-59
2022/06/19 20:58:52;;;;;;;7.65;3.42;;;;;;;;;;8349283;28;20024;-58
2022/06/19 21:02:53;;;;;;;8.30;3.00;;;;;;;;;;8349109;28;20094;-59
2022/06/19 21:06:53;;;;;;;6.53;3.20;;;;;;;;;;8352447;28;20028;-59
2022/06/19 21:10:54;;;;;;;7.10;3.00;;;;;;;;;;8347421;28;20048;-59
2022/06/19 21:14:55;;;;;;;8.30;3.50;;;;;;;;;;8352069;28;20482;-59
2022/06/19 21:18:55;;;;;;;5.35;2.78;;;;;;;;;;8350221;28;20634;-59
2022/06/19 21:22:56;;;;;;;8.90;3.03;;;;;;;;;;8353316;28;20790;-59
2022/06/19 21:26:58;;;;;;;8.65;3.30;;;;;;;;;;8355519;28;20658;-59
2022/06/19 21:30:58;;;;;;;6.15;2.92;;;;;;;;;;8354508;28;20032;-59
2022/06/19 21:34:58;;;;;;;9.93;3.28;;;;;;;;;;8358697;28;20028;-59
2022/06/19 21:39:00;;;;;;;10.23;3.13;;;;;;;;;;8359615;28;20024;-58
2022/06/19 21:43:00;;;;;;;8.93;3.28;;;;;;;;;;8355316;28;20033;-58
2022/06/19 21:47:00;;;;;;;7.87;3.00;;;;;;;;;;8358750;28;20071;-59
2022/06/19 21:51:01;;;;;;;10.63;3.15;;;;;;;;;;8359639;28;20097;-60
2022/06/19 21:55:02;;;;;;;11.20;3.33;;;;;;;;;;8356470;28;20032;-59
2022/06/19 21:59:05;;;;;;;9.13;3.40;;;;;;;;;;8357286;28;20020;-58
2022/06/19 22:03:06;;;;;;;11.88;3.63;;;;;;;;;;8354952;28;20025;-58
2022/06/19 22:07:10;;;;;;;12.52;3.70;;;;;;;;;;8356873;28;20021;-59
2022/06/19 22:15:38;;;;;;;6.57;2.92;;;;;;;;;;8354414;28;20113;-60
2022/06/19 22:19:39;;;;;;;7.22;3.03;;;;;;;;;;8357128;28;20056;-60
2022/06/19 22:23:40;;;;;;;9.15;3.13;;;;;;;;;;8356977;28;20044;-59
2022/06/19 22:27:40;;;;;;;9.63;3.50;;;;;;;;;;8353319;28;20048;-59
2022/06/19 22:31:41;;;;;;;9.48;3.10;;;;;;;;;;8356455;28;20546;-59
2022/06/19 22:35:41;;;;;;;8.98;3.25;;;;;;;;;;8354895;28;20033;-59
2022/06/19 22:39:46;;;;;;;9.27;3.42;;;;;;;;;;8352586;28;20093;-60
2022/06/19 22:43:46;;;;;;;8.30;3.30;;;;;;;;;;8356921;28;20017;-59
2022/06/19 22:47:47;;;;;;;9.60;3.13;;;;;;;;;;8351462;28;20151;-60
2022/06/19 22:51:49;;;;;;;8.73;3.10;;;;;;;;;;8355112;28;20025;-58
2022/06/19 22:55:50;;;;;;;7.93;3.13;;;;;;;;;;8356088;28;20028;-59
2022/06/19 23:04:19;;;;;;;8.88;3.25;;;;;;;;;;8355243;28;20083;-59
2022/06/19 23:08:20;;;;;;;12.00;3.35;;;;;;;;;;8353405;28;20023;-58
2022/06/19 23:12:21;;;;;;;9.50;3.33;;;;;;;;;;8355158;28;20195;-59
2022/06/19 23:16:22;;;;;;;9.17;3.27;;;;;;;;;;8353047;28;20044;-59
2022/06/19 23:20:23;;;;;;;8.32;3.25;;;;;;;;;;8352999;28;20031;-60
2022/06/19 23:24:29;;;;;;;8.43;3.20;;;;;;;;;;8352215;28;20017;-59
2022/06/19 23:28:32;;;;;;;11.55;3.40;;;;;;;;;;8356244;28;20028;-59
2022/06/19 23:32:33;;;;;;;;;;;;;;;;;;8355081;28;20037;-59
2022/06/19 23:36:34;;;;;;;10.35;3.10;;;;;;;;;;8353351;28;20030;-59
2022/06/19 23:40:35;;;;;;;9.75;2.85;;;;;;;;;;8353569;28;20024;-59
2022/06/19 23:44:36;;;;;;;11.68;3.50;;;;;;;;;;8354266;28;20094;-59
2022/06/19 23:48:36;;;;;;;9.50;3.38;;;;;;;;;;8353964;28;20040;-60
2022/06/19 23:52:37;;;;;;;9.53;3.17;;;;;;;;;;8353904;28;20566;-60
2022/06/19 23:56:38;;;;;;;11.30;3.17;;;;;;;;;;8356745;28;20302;-58
